createdAt,value
2019-04-16T00:00:17.272Z,0.6558
2019-04-16T00:01:03.567Z,0.6458
2019-04-16T00:01:51.657Z,0.6256
2019-04-16T00:02:38.581Z,0.6458
2019-04-16T00:03:24.524Z,0.6256
2019-04-16T00:04:11.872Z,0.6256
2019-04-16T00:04:59.538Z,0.6256
2019-04-16T00:05:46.862Z,0.6155
2019-04-16T00:06:34.294Z,0.6155
2019-04-16T00:07:21.613Z,0.5954
2019-04-16T00:08:19.333Z,0.6256
2019-04-16T00:08:58.900Z,0.6256
2019-04-16T00:09:46.274Z,0.6458
2019-04-16T00:10:33.788Z,0.6155
2019-04-16T00:11:21.253Z,0.6256
2019-04-16T00:12:08.110Z,0.6256
2019-04-16T00:12:55.380Z,0.6458
2019-04-16T00:13:41.905Z,0.6256
2019-04-16T00:14:29.274Z,0.6558
2019-04-16T00:15:18.060Z,0.6256
2019-04-16T00:16:04.964Z,0.6458
2019-04-16T00:16:51.524Z,0.6558
2019-04-16T00:17:38.906Z,0.6558
2019-04-16T00:18:26.692Z,0.6860
2019-04-16T00:19:14.027Z,0.6860
2019-04-16T00:20:00.560Z,0.7263
2019-04-16T00:20:47.489Z,0.7565
2019-04-16T00:21:34.082Z,0.7565
2019-04-16T00:22:21.005Z,0.7666
2019-04-16T00:23:07.964Z,0.7767
2019-04-16T00:23:55.529Z,0.7767
2019-04-16T00:24:42.036Z,0.7767
2019-04-16T00:25:28.329Z,0.7968
2019-04-16T00:26:15.570Z,0.7767
2019-04-16T00:27:02.953Z,0.7767
2019-04-16T00:27:49.473Z,0.7767
2019-04-16T00:28:36.524Z,0.7767
2019-04-16T00:29:23.956Z,0.7666
2019-04-16T00:30:11.227Z,0.7666
2019-04-16T00:30:57.622Z,0.7565
2019-04-16T00:31:44.882Z,0.7364
2019-04-16T00:32:32.366Z,0.7364
2019-04-16T00:33:18.951Z,0.7565
2019-04-16T00:34:05.749Z,0.7263
2019-04-16T00:34:52.977Z,0.7263
2019-04-16T00:35:38.543Z,0.7364
2019-04-16T00:36:24.820Z,0.7364
2019-04-16T00:37:11.603Z,0.7263
2019-04-16T00:37:58.434Z,0.7263
2019-04-16T00:38:45.020Z,0.7263
2019-04-16T00:39:32.134Z,0.6961
2019-04-16T00:40:18.689Z,0.6961
2019-04-16T00:41:06.124Z,0.6961
2019-04-16T00:41:53.585Z,0.6961
2019-04-16T00:42:39.892Z,0.6860
2019-04-16T00:43:27.469Z,0.6760
2019-04-16T00:44:14.753Z,0.6558
2019-04-16T00:45:02.026Z,0.6558
2019-04-16T00:45:48.968Z,0.6256
2019-04-16T00:46:36.417Z,0.6458
2019-04-16T00:47:24.033Z,0.6558
2019-04-16T00:48:12.031Z,0.6558
2019-04-16T00:48:59.358Z,0.6760
2019-04-16T00:49:47.100Z,0.6558
2019-04-16T00:50:34.473Z,0.6558
2019-04-16T00:51:21.936Z,0.6558
2019-04-16T00:52:08.322Z,0.6558
2019-04-16T00:52:55.663Z,0.6458
2019-04-16T00:53:43.246Z,0.6458
2019-04-16T00:54:30.681Z,0.6458
2019-04-16T00:55:16.986Z,0.6458
2019-04-16T00:56:04.844Z,0.6256
2019-04-16T00:56:52.168Z,0.6256
2019-04-16T00:57:38.618Z,0.6458
2019-04-16T00:58:24.914Z,0.6155
2019-04-16T00:59:12.443Z,0.6155
2019-04-16T00:59:58.745Z,0.6155
2019-04-16T01:00:46.496Z,0.5853
2019-04-16T01:01:32.792Z,0.5853
2019-04-16T01:02:19.958Z,0.5551
2019-04-16T01:03:07.197Z,0.5551
2019-04-16T01:03:54.667Z,0.5249
2019-04-16T01:04:40.972Z,0.5048
2019-04-16T01:05:29.084Z,0.5048
2019-04-16T01:06:16.448Z,0.4947
2019-04-16T01:07:03.989Z,0.4645
2019-04-16T01:07:50.876Z,0.4443
2019-04-16T01:08:38.315Z,0.4443
2019-04-16T01:09:25.699Z,0.4343
2019-04-16T01:10:13.198Z,0.4041
2019-04-16T01:11:00.175Z,0.4041
2019-04-16T01:11:49.034Z,0.4141
2019-04-16T01:12:35.588Z,0.4041
2019-04-16T01:13:24.492Z,0.4041
2019-04-16T01:14:11.964Z,0.3940
2019-04-16T01:15:00.899Z,0.3940
2019-04-16T01:15:48.689Z,0.3940
2019-04-16T01:16:36.137Z,0.3638
2019-04-16T01:17:23.205Z,0.3738
2019-04-16T01:18:09.751Z,0.3638
2019-04-16T01:18:57.204Z,0.3638
2019-04-16T01:19:44.845Z,0.3638
2019-04-16T01:20:31.849Z,0.3738
2019-04-16T01:21:19.392Z,0.3436
2019-04-16T01:22:06.693Z,0.3235
2019-04-16T01:22:54.013Z,0.3235
2019-04-16T01:23:39.979Z,0.3235
2019-04-16T01:24:27.432Z,0.2933
2019-04-16T01:25:13.728Z,0.2832
2019-04-16T01:26:01.144Z,0.2631
2019-04-16T01:26:48.542Z,0.2530
2019-04-16T01:27:35.673Z,0.2328
2019-04-16T01:28:23.023Z,0.2530
2019-04-16T01:29:10.382Z,0.2228
2019-04-16T01:29:57.578Z,0.2228
2019-04-16T01:30:44.735Z,0.2228
2019-04-16T01:31:32.396Z,0.2228
2019-04-16T01:32:20.077Z,0.2127
2019-04-16T01:33:07.419Z,0.2127
2019-04-16T01:33:54.571Z,0.2127
2019-04-16T01:34:41.897Z,0.1825
2019-04-16T01:35:29.209Z,0.1926
2019-04-16T01:36:16.460Z,0.1624
2019-04-16T01:37:04.573Z,0.1523
2019-04-16T01:37:56.485Z,0.1523
2019-04-16T01:38:44.565Z,0.1221
2019-04-16T01:39:31.905Z,0.1120
2019-04-16T01:40:19.220Z,0.1120
2019-04-16T01:41:06.722Z,0.1019
2019-04-16T01:41:54.347Z,0.0818
2019-04-16T01:42:41.216Z,0.0818
2019-04-16T01:43:28.689Z,0.0516
2019-04-16T01:44:15.010Z,0.0516
2019-04-16T01:45:02.541Z,0.0516
2019-04-16T01:45:49.854Z,0.0415
2019-04-16T01:46:37.374Z,0.0415
2019-04-16T01:47:24.311Z,0.0314
2019-04-16T01:48:10.829Z,0.0012
2019-04-16T01:48:58.302Z,0.0012
2019-04-16T01:49:45.879Z,-0.0189
2019-04-16T01:50:33.206Z,-0.0189
2019-04-16T01:51:19.929Z,-0.0290
2019-04-16T01:52:07.621Z,-0.0290
2019-04-16T01:52:55.271Z,-0.0592
2019-04-16T01:53:42.676Z,-0.0693
2019-04-16T01:54:29.510Z,-0.0693
2019-04-16T01:55:15.064Z,-0.0693
2019-04-16T01:56:02.636Z,-0.0793
2019-04-16T01:56:49.844Z,-0.0995
2019-04-16T01:57:36.712Z,-0.0995
2019-04-16T01:58:24.103Z,-0.0995
2019-04-16T01:59:11.652Z,-0.0995
2019-04-16T01:59:58.740Z,-0.1398
2019-04-16T02:00:47.105Z,-0.1096
2019-04-16T02:01:34.672Z,-0.1096
2019-04-16T02:02:22.091Z,-0.0995
2019-04-16T02:03:09.688Z,-0.0995
2019-04-16T02:03:55.981Z,-0.0793
2019-04-16T02:04:43.592Z,-0.0793
2019-04-16T02:05:30.823Z,-0.0592
2019-04-16T02:06:18.349Z,-0.0693
2019-04-16T02:07:04.634Z,-0.0693
2019-04-16T02:07:52.671Z,-0.0693
2019-04-16T02:08:39.969Z,-0.0693
2019-04-16T02:09:26.510Z,-0.0592
2019-04-16T02:10:13.460Z,-0.0693
2019-04-16T02:11:01.013Z,-0.0693
2019-04-16T02:11:47.992Z,-0.0693
2019-04-16T02:12:35.478Z,-0.0793
2019-04-16T02:13:22.353Z,-0.0995
2019-04-16T02:14:09.795Z,-0.0995
2019-04-16T02:14:57.055Z,-0.1096
2019-04-16T02:15:44.317Z,-0.1096
2019-04-16T02:16:31.286Z,-0.1096
2019-04-16T02:17:19.201Z,-0.0995
2019-04-16T02:18:06.476Z,-0.0995
2019-04-16T02:18:53.982Z,-0.0793
2019-04-16T02:19:40.869Z,-0.0793
2019-04-16T02:20:28.429Z,-0.0995
2019-04-16T02:21:15.853Z,-0.0995
2019-04-16T02:22:02.194Z,-0.1096
2019-04-16T02:22:48.493Z,-0.0995
2019-04-16T02:23:36.347Z,-0.1096
2019-04-16T02:24:22.694Z,-0.1096
2019-04-16T02:25:10.513Z,-0.1297
2019-04-16T02:25:57.554Z,-0.1297
2019-04-16T02:26:44.086Z,-0.1398
2019-04-16T02:27:31.473Z,-0.1700
2019-04-16T02:28:21.451Z,-0.1700
2019-04-16T02:29:09.436Z,-0.1801
2019-04-16T02:29:58.563Z,-0.1801
2019-04-16T02:30:49.343Z,-0.2103
2019-04-16T02:31:36.657Z,-0.2103
2019-04-16T02:32:22.996Z,-0.2103
2019-04-16T02:33:10.352Z,-0.2103
2019-04-16T02:33:58.331Z,-0.2002
2019-04-16T02:34:45.660Z,-0.2103
2019-04-16T02:35:31.871Z,-0.2002
2019-04-16T02:36:18.948Z,-0.2304
2019-04-16T02:37:05.495Z,-0.2304
2019-04-16T02:37:52.888Z,-0.2304
2019-04-16T02:38:46.322Z,-0.2505
2019-04-16T02:39:47.664Z,-0.2505
2019-04-16T02:40:25.314Z,-0.2304
2019-04-16T02:41:12.670Z,-0.2304
2019-04-16T02:41:58.561Z,-0.2103
2019-04-16T02:42:46.108Z,-0.2002
2019-04-16T02:43:39.676Z,-0.1700
2019-04-16T02:44:26.094Z,-0.1498
2019-04-16T02:45:13.142Z,-0.1398
2019-04-16T02:46:01.230Z,-0.1297
2019-04-16T02:46:48.261Z,-0.1096
2019-04-16T02:47:39.947Z,-0.1096
2019-04-16T02:48:27.095Z,-0.1096
2019-04-16T02:49:14.603Z,-0.1096
2019-04-16T02:50:01.302Z,-0.1297
2019-04-16T02:50:48.631Z,-0.1096
2019-04-16T02:51:39.594Z,-0.1096
2019-04-16T02:52:28.493Z,-0.1096
2019-04-16T02:53:14.816Z,-0.1297
2019-04-16T02:54:01.427Z,-0.1297
2019-04-16T02:54:49.103Z,-0.1297
2019-04-16T02:55:42.634Z,-0.1297
2019-04-16T02:56:28.513Z,-0.1297
2019-04-16T02:57:15.535Z,-0.1096
2019-04-16T02:58:03.590Z,-0.0995
2019-04-16T02:58:50.927Z,-0.0995
2019-04-16T02:59:37.871Z,-0.0793
2019-04-16T03:00:25.328Z,-0.0793
2019-04-16T03:01:12.828Z,-0.0793
2019-04-16T03:02:00.187Z,-0.0693
2019-04-16T03:02:47.382Z,-0.0793
2019-04-16T03:03:33.690Z,-0.0592
2019-04-16T03:04:21.524Z,-0.0592
2019-04-16T03:05:08.735Z,-0.0290
2019-04-16T03:06:00.646Z,-0.0290
2019-04-16T03:06:47.910Z,-0.0290
2019-04-16T03:07:35.258Z,-0.0592
2019-04-16T03:08:22.322Z,-0.0290
2019-04-16T03:09:09.967Z,-0.0189
2019-04-16T03:10:01.678Z,-0.0189
2019-04-16T03:10:49.693Z,0.0012
2019-04-16T03:11:36.657Z,-0.0189
2019-04-16T03:12:23.502Z,0.0113
2019-04-16T03:13:10.932Z,-0.0189
2019-04-16T03:13:59.371Z,0.0012
2019-04-16T03:14:46.840Z,0.0314
2019-04-16T03:15:34.233Z,0.0113
2019-04-16T03:16:21.098Z,0.0415
2019-04-16T03:17:10.626Z,0.0314
2019-04-16T03:17:59.813Z,0.0516
2019-04-16T03:18:47.548Z,0.0415
2019-04-16T03:19:38.805Z,0.0314
2019-04-16T03:20:25.360Z,0.0314
2019-04-16T03:21:12.759Z,0.0314
2019-04-16T03:22:02.131Z,0.0314
2019-04-16T03:22:50.439Z,0.0113
2019-04-16T03:23:37.505Z,-0.0189
2019-04-16T03:24:25.193Z,-0.0189
2019-04-16T03:25:13.954Z,-0.0189
2019-04-16T03:26:01.759Z,-0.0290
2019-04-16T03:26:50.498Z,-0.0290
2019-04-16T03:27:38.710Z,-0.0290
2019-04-16T03:28:27.273Z,-0.0189
2019-04-16T03:29:15.693Z,0.0012
2019-04-16T03:30:03.405Z,-0.0189
2019-04-16T03:30:53.119Z,-0.0189
2019-04-16T03:31:40.127Z,0.0012
2019-04-16T03:32:33.554Z,0.0012
2019-04-16T03:33:21.482Z,0.0113
2019-04-16T03:34:08.556Z,0.0113
2019-04-16T03:34:56.598Z,0.0113
2019-04-16T03:35:44.044Z,0.0314
2019-04-16T03:36:30.307Z,0.0113
2019-04-16T03:37:16.697Z,0.0113
2019-04-16T03:38:05.178Z,0.0314
2019-04-16T03:38:53.148Z,0.0415
2019-04-16T03:39:43.624Z,0.0717
2019-04-16T03:40:31.828Z,0.1019
2019-04-16T03:41:18.778Z,0.1523
2019-04-16T03:42:06.167Z,0.1825
2019-04-16T03:42:52.470Z,0.2127
2019-04-16T03:43:39.602Z,0.2530
2019-04-16T03:44:27.067Z,0.2530
2019-04-16T03:45:14.639Z,0.2933
2019-04-16T03:46:01.631Z,0.2933
2019-04-16T03:46:48.164Z,0.2933
2019-04-16T03:47:34.997Z,0.2933
2019-04-16T03:48:23.440Z,0.3134
2019-04-16T03:49:11.671Z,0.3235
2019-04-16T03:49:59.315Z,0.3134
2019-04-16T03:50:47.702Z,0.2933
2019-04-16T03:51:35.523Z,0.2933
2019-04-16T03:52:23.452Z,0.2933
2019-04-16T03:53:10.857Z,0.2631
2019-04-16T03:53:58.280Z,0.2631
2019-04-16T03:54:45.248Z,0.2631
2019-04-16T03:55:32.142Z,0.2328
2019-04-16T03:56:18.654Z,0.2228
2019-04-16T03:57:05.593Z,0.2127
2019-04-16T03:57:53.179Z,0.2127
2019-04-16T03:58:40.512Z,0.1926
2019-04-16T03:59:27.563Z,0.1926
2019-04-16T04:00:15.017Z,0.1926
2019-04-16T04:01:22.845Z,0.1624
2019-04-16T04:02:09.261Z,0.1523
2019-04-16T04:02:57.366Z,0.1221
2019-04-16T04:03:44.405Z,0.1221
2019-04-16T04:04:30.938Z,0.1221
2019-04-16T04:05:18.297Z,0.1221
2019-04-16T04:06:06.812Z,0.1120
2019-04-16T04:06:55.284Z,0.1120
2019-04-16T04:07:44.211Z,0.1221
2019-04-16T04:08:31.949Z,0.1120
2019-04-16T04:09:22.155Z,0.1120
2019-04-16T04:10:10.814Z,0.1120
2019-04-16T04:10:57.164Z,0.1019
2019-04-16T04:11:44.652Z,0.1120
2019-04-16T04:12:32.316Z,0.1120
2019-04-16T04:13:19.324Z,0.1221
2019-04-16T04:14:06.494Z,0.1120
2019-04-16T04:14:55.168Z,0.1221
2019-04-16T04:15:42.500Z,0.1221
2019-04-16T04:16:30.561Z,0.1221
2019-04-16T04:17:20.555Z,0.1624
2019-04-16T04:18:11.785Z,0.1523
2019-04-16T04:18:59.856Z,0.1523
2019-04-16T04:19:47.097Z,0.1624
2019-04-16T04:20:33.577Z,0.1825
2019-04-16T04:21:22.304Z,0.1624
2019-04-16T04:22:10.306Z,0.1825
2019-04-16T04:22:57.884Z,0.1825
2019-04-16T04:23:45.352Z,0.1825
2019-04-16T04:24:32.217Z,0.1624
2019-04-16T04:25:19.839Z,0.1523
2019-04-16T04:26:08.932Z,0.1624
2019-04-16T04:26:57.639Z,0.1624
2019-04-16T04:27:46.713Z,0.1825
2019-04-16T04:28:35.488Z,0.1926
2019-04-16T04:29:24.689Z,0.1825
2019-04-16T04:30:11.416Z,0.1825
2019-04-16T04:31:00.892Z,0.2228
2019-04-16T04:31:49.437Z,0.2228
2019-04-16T04:32:36.628Z,0.2328
2019-04-16T04:33:24.094Z,0.2328
2019-04-16T04:34:14.853Z,0.2530
2019-04-16T04:35:03.212Z,0.2832
2019-04-16T04:35:52.008Z,0.3134
2019-04-16T04:36:39.639Z,0.3235
2019-04-16T04:37:30.986Z,0.3436
2019-04-16T04:38:19.185Z,0.3940
2019-04-16T04:39:09.884Z,0.3940
2019-04-16T04:39:58.390Z,0.4041
2019-04-16T04:40:50.581Z,0.4343
2019-04-16T04:41:37.317Z,0.4443
2019-04-16T04:42:25.620Z,0.4645
2019-04-16T04:43:15.457Z,0.4947
2019-04-16T04:44:04.300Z,0.4947
2019-04-16T04:44:52.819Z,0.5249
2019-04-16T04:45:40.798Z,0.5450
2019-04-16T04:46:28.911Z,0.5551
2019-04-16T04:47:19.350Z,0.5853
2019-04-16T04:48:11.035Z,0.5954
2019-04-16T04:49:00.280Z,0.6256
2019-04-16T04:49:47.866Z,0.6558
2019-04-16T04:50:35.434Z,0.7263
2019-04-16T04:51:22.578Z,0.7565
2019-04-16T04:52:13.587Z,0.7968
2019-04-16T04:53:02.217Z,0.8371
2019-04-16T04:53:50.269Z,0.9076
2019-04-16T04:54:39.321Z,0.9479
2019-04-16T04:55:27.062Z,0.9882
2019-04-16T04:56:14.103Z,1.0486
2019-04-16T04:57:00.404Z,1.0989
2019-04-16T04:57:48.336Z,1.1392
2019-04-16T04:58:35.245Z,1.1896
2019-04-16T04:59:22.956Z,1.2601
2019-04-16T05:00:09.746Z,1.3004
2019-04-16T05:00:57.355Z,1.3507
2019-04-16T05:01:44.659Z,1.4111
2019-04-16T05:02:32.087Z,1.4816
2019-04-16T05:03:18.389Z,1.5219
2019-04-16T05:04:05.597Z,1.5622
2019-04-16T05:04:53.246Z,1.6025
2019-04-16T05:05:40.152Z,1.6629
2019-04-16T05:06:27.770Z,1.7133
2019-04-16T05:07:15.867Z,1.7435
2019-04-16T05:08:03.220Z,1.8039
2019-04-16T05:08:50.353Z,1.8542
2019-04-16T05:09:36.889Z,1.8845
2019-04-16T05:10:25.002Z,1.9247
2019-04-16T05:11:12.576Z,1.9650
2019-04-16T05:12:02.816Z,1.9952
2019-04-16T05:12:52.611Z,2.0657
2019-04-16T05:13:39.641Z,2.0758
2019-04-16T05:14:27.060Z,2.1262
2019-04-16T05:15:14.634Z,2.1463
2019-04-16T05:16:01.972Z,2.1967
2019-04-16T05:16:50.630Z,2.2369
2019-04-16T05:17:38.563Z,2.2873
2019-04-16T05:18:26.777Z,2.3276
2019-04-16T05:19:14.880Z,2.3578
2019-04-16T05:20:03.052Z,2.3880
2019-04-16T05:20:50.655Z,2.4686
2019-04-16T05:21:37.858Z,2.5089
2019-04-16T05:22:24.155Z,2.5995
2019-04-16T05:23:11.917Z,2.6398
2019-04-16T05:23:58.847Z,2.7103
2019-04-16T05:24:46.694Z,2.7505
2019-04-16T05:25:34.122Z,2.8009
2019-04-16T05:26:21.738Z,2.8613
2019-04-16T05:27:09.444Z,2.9218
2019-04-16T05:27:57.375Z,2.9721
2019-04-16T05:28:45.352Z,3.0124
2019-04-16T05:29:33.208Z,3.0728
2019-04-16T05:30:21.690Z,3.1131
2019-04-16T05:31:09.699Z,3.1635
2019-04-16T05:31:57.370Z,3.2239
2019-04-16T05:32:45.797Z,3.2642
2019-04-16T05:33:34.490Z,3.3447
2019-04-16T05:34:24.203Z,3.4052
2019-04-16T05:35:11.168Z,3.4656
2019-04-16T05:35:59.444Z,3.5461
2019-04-16T05:36:47.990Z,3.5965
2019-04-16T05:37:35.927Z,3.6871
2019-04-16T05:38:23.581Z,3.7576
2019-04-16T05:39:12.068Z,3.8583
2019-04-16T05:39:59.559Z,3.9389
2019-04-16T05:40:47.108Z,4.0396
2019-04-16T05:41:34.042Z,4.1302
2019-04-16T05:42:25.884Z,4.2310
2019-04-16T05:43:13.798Z,4.3719
2019-04-16T05:44:02.110Z,4.4525
2019-04-16T05:44:49.161Z,4.5532
2019-04-16T05:45:37.675Z,4.6640
2019-04-16T05:46:25.474Z,4.7446
2019-04-16T05:47:16.834Z,4.8352
2019-04-16T05:48:04.426Z,4.9258
2019-04-16T05:48:53.997Z,5.0165
2019-04-16T05:49:42.869Z,5.1071
2019-04-16T05:50:30.343Z,5.1675
2019-04-16T05:51:17.648Z,5.2582
2019-04-16T05:52:04.196Z,5.3186
2019-04-16T05:52:52.078Z,5.4092
2019-04-16T05:53:40.081Z,5.4797
2019-04-16T05:54:28.448Z,5.5301
2019-04-16T05:55:17.666Z,5.6207
2019-04-16T05:56:07.336Z,5.6912
2019-04-16T05:56:46.223Z,5.7315
2019-04-16T05:57:32.868Z,5.8020
2019-04-16T05:58:19.805Z,5.8423
2019-04-16T05:59:08.288Z,5.9027
2019-04-16T05:59:55.228Z,5.9732
2019-04-16T06:00:42.458Z,6.0135
2019-04-16T06:01:29.883Z,6.0437
2019-04-16T06:02:18.785Z,6.0941
2019-04-16T06:03:07.151Z,6.1444
2019-04-16T06:03:54.256Z,6.1948
2019-04-16T06:04:41.828Z,6.2048
2019-04-16T06:05:30.403Z,6.2653
2019-04-16T06:06:17.784Z,6.3458
2019-04-16T06:07:07.598Z,6.4566
2019-04-16T06:07:55.456Z,6.6379
2019-04-16T06:08:43.249Z,6.8393
2019-04-16T06:09:31.766Z,7.0306
2019-04-16T06:10:19.176Z,7.2522
2019-04-16T06:11:07.003Z,7.5040
2019-04-16T06:11:55.396Z,7.7155
2019-04-16T06:12:41.704Z,7.9370
2019-04-16T06:13:28.048Z,8.1485
2019-04-16T06:14:17.530Z,8.3398
2019-04-16T06:15:06.681Z,8.5614
2019-04-16T06:15:54.527Z,8.7628
2019-04-16T06:16:41.578Z,8.9542
2019-04-16T06:17:31.927Z,9.1254
2019-04-16T06:18:20.261Z,9.3066
2019-04-16T06:19:08.552Z,9.4778
2019-04-16T06:19:57.939Z,9.6490
2019-04-16T06:20:44.224Z,9.8203
2019-04-16T06:21:31.668Z,9.9411
2019-04-16T06:22:19.161Z,10.1224
2019-04-16T06:23:05.475Z,10.2231
2019-04-16T06:23:51.557Z,10.3137
2019-04-16T06:24:40.173Z,10.3842
2019-04-16T06:25:26.166Z,10.4648
2019-04-16T06:26:16.101Z,10.5856
2019-04-16T06:27:03.927Z,10.7367
2019-04-16T06:27:51.725Z,10.8676
2019-04-16T06:28:38.935Z,11.0388
2019-04-16T06:29:28.974Z,11.1194
2019-04-16T06:30:16.846Z,11.1395
2019-04-16T06:31:05.670Z,11.1496
2019-04-16T06:31:55.891Z,11.2604
2019-04-16T06:32:43.176Z,11.3611
2019-04-16T06:33:31.622Z,11.4316
2019-04-16T06:34:17.919Z,11.5021
2019-04-16T06:35:04.757Z,11.4719
2019-04-16T06:35:51.774Z,11.3510
2019-04-16T06:36:39.035Z,11.1798
2019-04-16T06:37:27.428Z,10.9885
2019-04-16T06:38:14.217Z,10.7468
2019-04-16T06:39:01.236Z,10.5353
2019-04-16T06:39:48.650Z,10.3339
2019-04-16T06:40:34.966Z,10.1022
2019-04-16T06:41:23.102Z,9.9210
2019-04-16T06:42:10.720Z,9.7900
2019-04-16T06:42:57.966Z,9.8001
2019-04-16T06:43:44.265Z,9.8404
2019-04-16T06:44:34.856Z,9.8605
2019-04-16T06:45:21.201Z,9.8303
2019-04-16T06:46:29.632Z,9.7699
2019-04-16T06:47:17.073Z,9.8605
2019-04-16T06:48:04.013Z,10.1022
2019-04-16T06:48:50.690Z,10.3741
2019-04-16T06:49:39.590Z,10.7065
2019-04-16T06:50:32.534Z,11.0690
2019-04-16T06:51:20.306Z,11.4517
2019-04-16T06:52:07.351Z,11.7740
2019-04-16T06:52:54.685Z,12.0660
2019-04-16T06:53:41.960Z,12.3480
2019-04-16T06:54:32.838Z,12.5696
2019-04-16T06:55:20.834Z,12.8314
2019-04-16T06:56:09.469Z,13.0832
2019-04-16T06:56:57.250Z,13.2745
2019-04-16T06:57:44.507Z,13.4659
2019-04-16T06:58:49.941Z,13.6673
2019-04-16T06:59:26.400Z,13.8284
2019-04-16T07:00:16.402Z,13.9996
2019-04-16T07:01:06.011Z,14.1708
2019-04-16T07:01:56.500Z,14.4025
2019-04-16T07:03:01.689Z,14.6240
2019-04-16T07:03:37.876Z,14.8557
2019-04-16T07:04:29.503Z,15.0571
2019-04-16T07:05:33.238Z,15.2686
2019-04-16T07:06:20.451Z,15.5203
2019-04-16T07:07:09.474Z,15.6815
2019-04-16T07:07:55.937Z,15.9131
2019-04-16T07:08:43.419Z,16.1044
2019-04-16T07:09:41.543Z,16.3058
2019-04-16T07:10:28.920Z,16.5778
2019-04-16T07:11:16.711Z,16.8396
2019-04-16T07:12:03.071Z,17.1115
2019-04-16T07:12:51.268Z,17.3834
2019-04-16T07:13:42.115Z,17.6453
2019-04-16T07:14:31.049Z,17.9373
2019-04-16T07:15:22.805Z,18.1891
2019-04-16T07:16:10.928Z,18.5013
2019-04-16T07:17:00.153Z,18.6826
2019-04-16T07:17:48.388Z,18.8940
2019-04-16T07:18:38.450Z,19.1156
2019-04-16T07:19:26.214Z,19.3875
2019-04-16T07:20:17.414Z,19.5386
2019-04-16T07:21:05.163Z,19.5789
2019-04-16T07:21:51.477Z,19.5184
2019-04-16T07:22:38.692Z,19.3674
2019-04-16T07:23:25.947Z,19.1559
2019-04-16T07:24:13.360Z,18.9243
2019-04-16T07:25:04.433Z,18.6624
2019-04-16T07:25:53.042Z,18.3704
2019-04-16T07:26:40.137Z,18.1085
2019-04-16T07:27:27.493Z,17.8568
2019-04-16T07:29:11.890Z,17.2726
2019-04-16T07:30:05.143Z,17.0209
2019-04-16T07:30:52.621Z,16.7590
2019-04-16T07:31:44.056Z,16.5576
2019-04-16T07:32:35.328Z,16.3562
2019-04-16T07:33:22.252Z,16.1649
2019-04-16T07:34:11.154Z,16.0541
2019-04-16T07:34:58.571Z,15.9836
2019-04-16T07:36:42.949Z,15.7620
2019-04-16T07:37:33.220Z,15.6512
2019-04-16T07:38:27.804Z,15.5707
2019-04-16T07:39:28.631Z,15.5103
2019-04-16T07:41:05.236Z,15.5405
2019-04-16T07:42:07.813Z,15.5203
2019-04-16T07:42:51.725Z,15.4599
2019-04-16T07:43:36.068Z,15.3693
2019-04-16T07:44:23.404Z,15.3290
2019-04-16T07:45:12.511Z,15.3491
2019-04-16T07:46:00.488Z,15.4599
2019-04-16T07:46:48.244Z,15.5505
2019-04-16T07:47:34.603Z,15.6714
2019-04-16T07:48:23.066Z,15.7520
2019-04-16T07:49:13.573Z,15.8224
2019-04-16T07:50:01.422Z,15.9131
2019-04-16T07:51:44.973Z,16.1044
2019-04-16T07:52:33.324Z,16.3260
2019-04-16T07:53:22.577Z,16.6080
2019-04-16T07:54:11.372Z,16.9101
2019-04-16T07:54:59.804Z,17.2324
2019-04-16T07:55:47.961Z,17.4942
2019-04-16T07:56:35.513Z,17.7359
2019-04-16T07:57:22.980Z,18.0078
2019-04-16T07:58:09.418Z,18.3704
2019-04-16T07:59:00.058Z,18.7329
2019-04-16T07:59:49.288Z,19.1458
2019-04-16T08:00:40.395Z,19.5084
2019-04-16T08:01:27.713Z,19.8206
2019-04-16T08:02:17.673Z,20.1025
2019-04-16T08:03:09.251Z,20.2939
2019-04-16T08:04:00.909Z,20.4147
2019-04-16T08:04:50.971Z,20.4953
2019-04-16T08:05:37.763Z,20.5054
2019-04-16T08:06:28.029Z,20.5054
2019-04-16T08:07:20.130Z,20.4752
2019-04-16T08:08:09.945Z,20.4349
2019-04-16T08:08:57.091Z,20.3946
2019-04-16T08:09:46.022Z,20.3644
2019-04-16T08:10:33.063Z,20.3442
2019-04-16T08:11:23.300Z,20.3442
2019-04-16T08:12:28.682Z,20.3745
2019-04-16T08:13:07.296Z,20.3442
2019-04-16T08:13:55.777Z,20.3442
2019-04-16T08:14:42.716Z,20.3745
2019-04-16T08:15:31.067Z,20.3946
2019-04-16T08:16:17.234Z,20.4147
2019-04-16T08:17:05.128Z,20.4752
2019-04-16T08:17:52.723Z,20.5154
2019-04-16T08:18:38.800Z,20.5457
2019-04-16T08:19:36.598Z,20.5457
2019-04-16T08:20:21.372Z,20.5054
2019-04-16T08:21:12.097Z,20.4651
2019-04-16T08:22:05.471Z,20.4147
2019-04-16T08:22:53.310Z,20.3241
2019-04-16T08:23:40.353Z,20.2435
2019-04-16T08:24:33.942Z,20.1328
2019-04-16T08:25:22.412Z,20.0723
2019-04-16T08:26:12.885Z,20.0320
2019-04-16T08:27:02.463Z,19.9615
2019-04-16T08:27:54.021Z,19.9213
2019-04-16T08:28:41.396Z,19.8911
2019-04-16T08:29:27.773Z,19.8911
2019-04-16T08:34:23.880Z,20.3644
2019-04-16T08:35:10.980Z,20.5154
2019-04-16T08:37:00.205Z,20.9485
2019-04-16T08:37:52.336Z,21.1499
2019-04-16T08:38:40.945Z,21.3916
2019-04-16T08:39:26.272Z,21.6132
2019-04-16T08:43:21.533Z,23.0634
2019-04-16T08:47:18.097Z,24.6042
2019-04-16T08:48:04.417Z,24.8862
2019-04-16T08:48:54.357Z,25.1279
2019-04-16T08:49:42.256Z,25.3293
2019-04-16T08:50:31.448Z,25.4401
2019-04-16T08:51:29.667Z,25.5005
2019-04-16T08:52:12.397Z,25.5408
2019-04-16T08:53:00.185Z,25.5811
2019-04-16T08:54:50.396Z,25.3494
2019-04-16T08:55:39.135Z,25.1581
2019-04-16T08:56:29.883Z,25.0272
2019-04-16T08:57:18.050Z,24.8459
2019-04-16T08:58:12.294Z,24.7250
2019-04-16T08:59:57.966Z,24.4330
2019-04-16T09:00:46.632Z,24.3524
2019-04-16T09:01:35.597Z,24.2618
2019-04-16T09:02:15.170Z,24.1711
2019-04-16T09:03:02.781Z,24.1309
2019-04-16T09:03:51.124Z,24.1006
2019-04-16T09:04:37.529Z,24.1006
2019-04-16T09:05:26.631Z,24.1006
2019-04-16T09:06:15.475Z,24.0805
2019-04-16T09:08:12.270Z,24.1006
2019-04-16T09:08:55.061Z,24.0604
2019-04-16T09:09:42.532Z,23.9899
2019-04-16T09:10:32.048Z,23.9194
2019-04-16T09:11:23.553Z,23.8690
2019-04-16T09:12:12.248Z,23.8690
2019-04-16T09:13:04.129Z,23.9093
2019-04-16T09:13:54.731Z,23.9294
2019-04-16T09:14:44.030Z,23.9899
2019-04-16T09:15:30.792Z,24.0604
2019-04-16T09:16:19.580Z,24.0805
2019-04-16T09:17:09.403Z,24.0302
2019-04-16T09:17:57.066Z,24.0100
2019-04-16T09:18:45.799Z,23.9597
2019-04-16T09:19:33.431Z,23.9597
2019-04-16T09:20:22.912Z,23.9294
2019-04-16T09:24:11.925Z,24.6143
2019-04-16T09:24:59.868Z,24.8862
2019-04-16T09:25:48.756Z,25.1581
2019-04-16T09:26:36.369Z,25.4602
2019-04-16T09:28:26.983Z,25.9335
2019-04-16T09:29:16.252Z,26.1551
2019-04-16T09:31:00.673Z,26.8298
2019-04-16T09:31:47.380Z,27.1521
2019-04-16T09:34:40.342Z,28.0484
2019-04-16T09:37:28.406Z,28.6325
2019-04-16T09:42:01.667Z,28.8541
2019-04-16T09:42:53.230Z,29.0756
2019-04-16T09:44:02.166Z,29.3173
2019-04-16T09:51:52.067Z,31.7645
2019-04-16T09:52:38.505Z,31.7645
2019-04-16T09:57:39.922Z,31.1804
2019-04-16T10:00:27.412Z,31.6235
2019-04-16T10:03:21.778Z,32.0062
2019-04-16T10:05:06.714Z,31.9357
2019-04-16T10:05:53.582Z,31.8350
2019-04-16T10:10:53.366Z,32.0767
2019-04-16T10:11:39.662Z,32.2177
2019-04-16T10:13:35.996Z,32.6709
2019-04-16T10:18:24.685Z,32.4091
2019-04-16T10:19:12.669Z,32.3587
2019-04-16T10:19:59.394Z,32.2882
2019-04-16T10:21:44.125Z,32.2681
2019-04-16T10:23:29.585Z,32.2983
2019-04-16T10:24:17.831Z,32.2580
2019-04-16T10:26:07.441Z,32.2882
2019-04-16T10:26:56.808Z,32.3587
2019-04-16T10:28:44.126Z,32.6810
2019-04-16T10:29:32.022Z,32.8018
2019-04-16T10:33:23.019Z,33.0536
2019-04-16T10:34:14.140Z,33.1946
2019-04-16T10:35:02.301Z,33.3154
2019-04-16T10:37:53.080Z,33.4564
2019-04-16T10:39:56.718Z,33.4464
2019-04-16T10:41:56.491Z,33.4564
2019-04-16T10:43:50.950Z,33.3054
2019-04-16T10:44:43.442Z,33.3154
2019-04-16T10:45:33.286Z,33.4262
2019-04-16T10:46:21.416Z,33.6478
2019-04-16T10:49:06.729Z,34.5743
2019-04-16T10:51:51.587Z,34.7958
2019-04-16T10:52:39.003Z,34.8059
2019-04-16T10:53:25.413Z,34.8260
2019-04-16T10:56:12.769Z,35.1382
2019-04-16T10:56:59.076Z,35.2692
2019-04-16T10:57:47.549Z,35.3397
2019-04-16T11:03:23.335Z,35.2188
2019-04-16T11:04:09.662Z,35.2289
2019-04-16T11:04:56.562Z,35.2994
2019-04-16T11:05:44.405Z,35.3598
2019-04-16T11:06:31.163Z,35.3900
2019-04-16T11:07:22.009Z,35.4504
2019-04-16T11:08:09.297Z,35.5814
2019-04-16T11:08:58.069Z,35.6317
2019-04-16T11:09:46.100Z,35.6116
2019-04-16T11:10:32.893Z,35.5612
2019-04-16T11:11:24.011Z,35.5310